Pagrindinis puslapis
METAR-TAF:

METAR-TAF

Oro uostai :

Ljungbyhed, Švedija

platuma: 56-04N, ilguma: 013-12E, Aukštis: 43 m

Dabartinis oras

Ataskaita buvo paskelbta 21 minutes, ne 11:50 UTC
Vėjas 11 kt iš Pietų
Temperatūra 21°C
Drėgmė 53%
Slėgis 1026 hPa
Matomumas 10 km arba daugiau
Mažai debesys ne aukštis 2600 ft

METAR: ESTL 221150Z 19011KT 9999 FEW026 21/11 Q1026

Laikas: 14:11 (12:11 UTC)

Prognozė

Ataskaita buvo paskelbta 1 valandą ir 8 minutes, ne 11:03 UTC
Prognozė galioja nuo 22 metu 12 UTC su 22 metu 15 UTC
Vėjas 10 kt iš Pietų/Pietvakarių
Matomumas 10 km arba daugiau
Išsisklaidę debesys ne aukštis 4000 ft

TAF: ESTL 221103Z 2212/2215 20010KT 9999 SCT040

Orai ataskaitas ir orų prognozės (METAR, TAF).

turimą stotys yra geltonos ir raudonos taškus žemėlapyje.

Perkelti pele per norėdami pamatyti stoties vardą.

Tada spustelėkite, norėdami matyti oro stebėjimo ir prognozės.

Norėdami pakeisti žemėlapį: spustelėkite ant žalios mygtukų su juodo kryžiaus žemyn,; žalią mygtuką su brūkšneliu, jei norite nutolinti; arba žalių rodyklių gretimoms žemėlapius.


METAR-TAF: